sensor_id;sensor_type;location;lat;lon;timestamp;P1;durP1;ratioP1;P2;durP2;ratioP2
5898;SDS011;2975;50.956;6.962;2023-12-28T00:00:41;2.33;;;1.47;;
5898;SDS011;2975;50.956;6.962;2023-12-28T00:03:06;1.93;;;1.70;;
5898;SDS011;2975;50.956;6.962;2023-12-28T00:05:32;1.70;;;1.40;;
5898;SDS011;2975;50.956;6.962;2023-12-28T00:07:58;3.13;;;1.63;;
5898;SDS011;2975;50.956;6.962;2023-12-28T00:10:24;2.60;;;1.80;;
5898;SDS011;2975;50.956;6.962;2023-12-28T00:12:50;2.10;;;1.53;;
5898;SDS011;2975;50.956;6.962;2023-12-28T00:15:16;3.40;;;2.03;;
5898;SDS011;2975;50.956;6.962;2023-12-28T00:17:41;4.90;;;1.90;;
5898;SDS011;2975;50.956;6.962;2023-12-28T00:20:07;4.77;;;2.07;;
5898;SDS011;2975;50.956;6.962;2023-12-28T00:22:33;4.57;;;2.00;;
5898;SDS011;2975;50.956;6.962;2023-12-28T00:24:58;2.47;;;2.07;;
5898;SDS011;2975;50.956;6.962;2023-12-28T00:27:24;4.40;;;1.70;;
5898;SDS011;2975;50.956;6.962;2023-12-28T00:29:50;2.67;;;1.90;;
5898;SDS011;2975;50.956;6.962;2023-12-28T00:32:15;3.83;;;1.70;;
5898;SDS011;2975;50.956;6.962;2023-12-28T00:34:41;1.97;;;1.30;;
5898;SDS011;2975;50.956;6.962;2023-12-28T00:37:06;5.10;;;2.30;;
5898;SDS011;2975;50.956;6.962;2023-12-28T00:39:32;1.83;;;1.53;;
5898;SDS011;2975;50.956;6.962;2023-12-28T00:41:59;2.30;;;1.77;;
5898;SDS011;2975;50.956;6.962;2023-12-28T00:44:25;3.07;;;1.90;;
5898;SDS011;2975;50.956;6.962;2023-12-28T00:46:50;2.80;;;1.80;;
5898;SDS011;2975;50.956;6.962;2023-12-28T00:49:16;2.13;;;1.60;;
5898;SDS011;2975;50.956;6.962;2023-12-28T00:51:41;2.70;;;1.80;;
5898;SDS011;2975;50.956;6.962;2023-12-28T00:54:07;3.20;;;1.80;;
5898;SDS011;2975;50.956;6.962;2023-12-28T00:56:33;2.47;;;1.97;;
5898;SDS011;2975;50.956;6.962;2023-12-28T00:58:58;2.90;;;1.77;;
5898;SDS011;2975;50.956;6.962;2023-12-28T01:01:24;3.40;;;1.90;;
5898;SDS011;2975;50.956;6.962;2023-12-28T01:03:49;2.77;;;1.50;;
5898;SDS011;2975;50.956;6.962;2023-12-28T01:06:15;2.20;;;1.77;;
5898;SDS011;2975;50.956;6.962;2023-12-28T01:08:40;2.37;;;1.70;;
5898;SDS011;2975;50.956;6.962;2023-12-28T01:11:06;2.87;;;1.63;;
5898;SDS011;2975;50.956;6.962;2023-12-28T01:13:32;2.17;;;1.53;;
5898;SDS011;2975;50.956;6.962;2023-12-28T01:15:57;1.47;;;1.37;;
5898;SDS011;2975;50.956;6.962;2023-12-28T01:18:23;3.03;;;1.50;;
5898;SDS011;2975;50.956;6.962;2023-12-28T01:20:48;2.47;;;1.60;;
5898;SDS011;2975;50.956;6.962;2023-12-28T01:23:14;2.40;;;1.60;;
5898;SDS011;2975;50.956;6.962;2023-12-28T01:25:39;3.57;;;1.63;;
5898;SDS011;2975;50.956;6.962;2023-12-28T01:28:05;1.80;;;1.30;;
5898;SDS011;2975;50.956;6.962;2023-12-28T01:30:31;2.13;;;1.20;;
5898;SDS011;2975;50.956;6.962;2023-12-28T01:32:56;2.40;;;1.40;;
5898;SDS011;2975;50.956;6.962;2023-12-28T01:35:22;2.93;;;1.30;;
5898;SDS011;2975;50.956;6.962;2023-12-28T01:37:47;2.83;;;1.30;;
5898;SDS011;2975;50.956;6.962;2023-12-28T01:40:13;1.43;;;1.20;;
5898;SDS011;2975;50.956;6.962;2023-12-28T01:42:40;1.63;;;1.30;;
5898;SDS011;2975;50.956;6.962;2023-12-28T01:45:06;1.03;;;1.00;;
5898;SDS011;2975;50.956;6.962;2023-12-28T01:47:32;1.07;;;0.90;;
5898;SDS011;2975;50.956;6.962;2023-12-28T01:49:57;1.33;;;1.23;;
5898;SDS011;2975;50.956;6.962;2023-12-28T01:52:24;1.20;;;1.07;;
5898;SDS011;2975;50.956;6.962;2023-12-28T01:54:50;2.33;;;1.30;;
5898;SDS011;2975;50.956;6.962;2023-12-28T01:57:16;2.03;;;1.40;;
5898;SDS011;2975;50.956;6.962;2023-12-28T01:59:42;2.00;;;1.40;;
5898;SDS011;2975;50.956;6.962;2023-12-28T02:02:08;0.90;;;0.90;;
5898;SDS011;2975;50.956;6.962;2023-12-28T02:04:34;0.90;;;0.90;;
5898;SDS011;2975;50.956;6.962;2023-12-28T02:07:00;0.70;;;0.70;;
5898;SDS011;2975;50.956;6.962;2023-12-28T02:09:26;0.70;;;0.70;;
5898;SDS011;2975;50.956;6.962;2023-12-28T02:11:52;0.73;;;0.73;;
5898;SDS011;2975;50.956;6.962;2023-12-28T02:14:18;1.20;;;0.70;;
5898;SDS011;2975;50.956;6.962;2023-12-28T02:16:46;0.67;;;0.67;;
5898;SDS011;2975;50.956;6.962;2023-12-28T02:19:23;1.07;;;0.97;;
5898;SDS011;2975;50.956;6.962;2023-12-28T02:21:56;0.83;;;0.80;;
5898;SDS011;2975;50.956;6.962;2023-12-28T02:24:24;1.87;;;0.80;;
5898;SDS011;2975;50.956;6.962;2023-12-28T02:26:50;0.80;;;0.80;;
5898;SDS011;2975;50.956;6.962;2023-12-28T02:29:15;0.70;;;0.70;;
5898;SDS011;2975;50.956;6.962;2023-12-28T02:31:58;3.20;;;0.80;;
5898;SDS011;2975;50.956;6.962;2023-12-28T02:34:31;0.80;;;0.80;;
5898;SDS011;2975;50.956;6.962;2023-12-28T02:37:02;0.60;;;0.60;;
5898;SDS011;2975;50.956;6.962;2023-12-28T02:39:29;1.20;;;0.70;;
5898;SDS011;2975;50.956;6.962;2023-12-28T02:41:55;0.77;;;0.70;;
5898;SDS011;2975;50.956;6.962;2023-12-28T02:44:21;0.90;;;0.90;;
5898;SDS011;2975;50.956;6.962;2023-12-28T02:46:47;1.10;;;0.70;;
5898;SDS011;2975;50.956;6.962;2023-12-28T02:49:12;0.70;;;0.70;;
5898;SDS011;2975;50.956;6.962;2023-12-28T02:51:40;0.70;;;0.70;;
5898;SDS011;2975;50.956;6.962;2023-12-28T02:54:07;0.70;;;0.70;;
5898;SDS011;2975;50.956;6.962;2023-12-28T02:56:33;1.10;;;0.80;;
5898;SDS011;2975;50.956;6.962;2023-12-28T02:58:58;0.60;;;0.60;;
5898;SDS011;2975;50.956;6.962;2023-12-28T03:01:24;0.60;;;0.60;;
5898;SDS011;2975;50.956;6.962;2023-12-28T03:03:50;1.40;;;0.70;;
5898;SDS011;2975;50.956;6.962;2023-12-28T03:06:16;0.70;;;0.70;;
5898;SDS011;2975;50.956;6.962;2023-12-28T03:08:41;3.87;;;1.30;;
5898;SDS011;2975;50.956;6.962;2023-12-28T03:11:07;3.83;;;0.80;;
5898;SDS011;2975;50.956;6.962;2023-12-28T03:13:32;0.97;;;0.90;;
5898;SDS011;2975;50.956;6.962;2023-12-28T03:15:58;0.63;;;0.60;;
5898;SDS011;2975;50.956;6.962;2023-12-28T03:18:23;0.80;;;0.80;;
5898;SDS011;2975;50.956;6.962;2023-12-28T03:20:49;0.80;;;0.80;;
5898;SDS011;2975;50.956;6.962;2023-12-28T03:23:14;1.43;;;0.97;;
5898;SDS011;2975;50.956;6.962;2023-12-28T03:25:40;1.67;;;1.10;;
5898;SDS011;2975;50.956;6.962;2023-12-28T03:28:06;0.90;;;0.90;;
5898;SDS011;2975;50.956;6.962;2023-12-28T03:30:31;0.90;;;0.90;;
5898;SDS011;2975;50.956;6.962;2023-12-28T03:32:57;0.97;;;0.80;;
5898;SDS011;2975;50.956;6.962;2023-12-28T03:35:22;1.17;;;0.90;;
5898;SDS011;2975;50.956;6.962;2023-12-28T03:37:48;1.37;;;1.10;;
5898;SDS011;2975;50.956;6.962;2023-12-28T03:40:14;3.60;;;1.10;;
5898;SDS011;2975;50.956;6.962;2023-12-28T03:42:39;2.77;;;1.10;;
5898;SDS011;2975;50.956;6.962;2023-12-28T03:45:05;1.53;;;0.90;;
5898;SDS011;2975;50.956;6.962;2023-12-28T03:47:31;1.47;;;1.00;;
5898;SDS011;2975;50.956;6.962;2023-12-28T03:49:57;1.23;;;0.80;;
5898;SDS011;2975;50.956;6.962;2023-12-28T03:52:22;14.53;;;1.23;;
5898;SDS011;2975;50.956;6.962;2023-12-28T03:54:51;1.70;;;1.23;;
5898;SDS011;2975;50.956;6.962;2023-12-28T03:57:16;1.77;;;1.00;;
5898;SDS011;2975;50.956;6.962;2023-12-28T03:59:42;1.10;;;1.00;;
5898;SDS011;2975;50.956;6.962;2023-12-28T04:02:08;1.60;;;1.20;;
5898;SDS011;2975;50.956;6.962;2023-12-28T04:04:33;1.50;;;1.00;;
5898;SDS011;2975;50.956;6.962;2023-12-28T04:06:59;0.97;;;0.83;;
5898;SDS011;2975;50.956;6.962;2023-12-28T04:09:24;4.63;;;1.27;;
5898;SDS011;2975;50.956;6.962;2023-12-28T04:11:50;2.97;;;0.90;;
5898;SDS011;2975;50.956;6.962;2023-12-28T04:14:15;1.43;;;1.10;;
5898;SDS011;2975;50.956;6.962;2023-12-28T04:16:41;1.20;;;1.10;;
5898;SDS011;2975;50.956;6.962;2023-12-28T04:19:06;1.47;;;1.10;;
5898;SDS011;2975;50.956;6.962;2023-12-28T04:21:33;2.40;;;1.10;;
5898;SDS011;2975;50.956;6.962;2023-12-28T04:23:58;1.37;;;1.13;;
5898;SDS011;2975;50.956;6.962;2023-12-28T04:26:24;1.47;;;1.00;;
5898;SDS011;2975;50.956;6.962;2023-12-28T04:28:49;1.00;;;0.93;;
5898;SDS011;2975;50.956;6.962;2023-12-28T04:31:15;2.40;;;1.30;;
5898;SDS011;2975;50.956;6.962;2023-12-28T04:33:41;1.53;;;1.23;;
5898;SDS011;2975;50.956;6.962;2023-12-28T04:36:06;2.37;;;1.20;;
5898;SDS011;2975;50.956;6.962;2023-12-28T04:38:32;1.70;;;1.33;;
5898;SDS011;2975;50.956;6.962;2023-12-28T04:40:58;1.83;;;1.00;;
5898;SDS011;2975;50.956;6.962;2023-12-28T04:43:24;3.67;;;1.37;;
5898;SDS011;2975;50.956;6.962;2023-12-28T04:45:50;2.37;;;1.50;;
5898;SDS011;2975;50.956;6.962;2023-12-28T04:48:16;2.40;;;1.50;;
5898;SDS011;2975;50.956;6.962;2023-12-28T04:50:46;1.47;;;1.27;;
5898;SDS011;2975;50.956;6.962;2023-12-28T04:53:13;1.90;;;1.47;;
5898;SDS011;2975;50.956;6.962;2023-12-28T04:55:38;2.13;;;1.37;;
5898;SDS011;2975;50.956;6.962;2023-12-28T04:58:04;1.87;;;1.30;;
5898;SDS011;2975;50.956;6.962;2023-12-28T05:00:30;2.30;;;1.40;;
5898;SDS011;2975;50.956;6.962;2023-12-28T05:02:55;2.20;;;1.23;;
5898;SDS011;2975;50.956;6.962;2023-12-28T05:05:21;4.47;;;1.60;;
5898;SDS011;2975;50.956;6.962;2023-12-28T05:07:46;2.80;;;1.60;;
5898;SDS011;2975;50.956;6.962;2023-12-28T05:10:12;2.23;;;1.20;;
5898;SDS011;2975;50.956;6.962;2023-12-28T05:12:38;2.13;;;1.40;;
5898;SDS011;2975;50.956;6.962;2023-12-28T05:15:04;2.10;;;1.17;;
5898;SDS011;2975;50.956;6.962;2023-12-28T05:17:30;1.37;;;1.27;;
5898;SDS011;2975;50.956;6.962;2023-12-28T05:19:56;1.90;;;1.50;;
5898;SDS011;2975;50.956;6.962;2023-12-28T05:22:22;1.27;;;1.10;;
5898;SDS011;2975;50.956;6.962;2023-12-28T05:24:47;3.00;;;1.23;;
5898;SDS011;2975;50.956;6.962;2023-12-28T05:27:13;1.30;;;1.20;;
5898;SDS011;2975;50.956;6.962;2023-12-28T05:29:38;1.63;;;1.30;;
5898;SDS011;2975;50.956;6.962;2023-12-28T05:32:04;1.50;;;1.40;;
5898;SDS011;2975;50.956;6.962;2023-12-28T05:34:30;1.97;;;1.23;;
5898;SDS011;2975;50.956;6.962;2023-12-28T05:36:56;3.17;;;1.50;;
5898;SDS011;2975;50.956;6.962;2023-12-28T05:39:21;1.67;;;1.50;;
5898;SDS011;2975;50.956;6.962;2023-12-28T05:41:47;2.83;;;1.40;;
5898;SDS011;2975;50.956;6.962;2023-12-28T05:44:15;2.13;;;1.70;;
5898;SDS011;2975;50.956;6.962;2023-12-28T05:46:41;2.57;;;1.50;;
5898;SDS011;2975;50.956;6.962;2023-12-28T05:49:07;1.57;;;1.20;;
5898;SDS011;2975;50.956;6.962;2023-12-28T05:51:41;1.60;;;1.40;;
5898;SDS011;2975;50.956;6.962;2023-12-28T05:54:07;1.40;;;1.30;;
5898;SDS011;2975;50.956;6.962;2023-12-28T05:56:33;1.40;;;1.20;;
5898;SDS011;2975;50.956;6.962;2023-12-28T05:58:59;2.93;;;1.70;;
5898;SDS011;2975;50.956;6.962;2023-12-28T06:01:25;5.27;;;1.80;;
5898;SDS011;2975;50.956;6.962;2023-12-28T06:03:50;1.33;;;1.23;;
5898;SDS011;2975;50.956;6.962;2023-12-28T06:06:17;1.40;;;1.30;;
5898;SDS011;2975;50.956;6.962;2023-12-28T06:08:43;4.27;;;1.73;;
5898;SDS011;2975;50.956;6.962;2023-12-28T06:11:09;4.87;;;2.10;;
5898;SDS011;2975;50.956;6.962;2023-12-28T06:13:34;1.80;;;1.30;;
5898;SDS011;2975;50.956;6.962;2023-12-28T06:16:00;3.33;;;1.67;;
5898;SDS011;2975;50.956;6.962;2023-12-28T06:18:26;1.67;;;1.40;;
5898;SDS011;2975;50.956;6.962;2023-12-28T06:20:51;3.60;;;2.23;;
5898;SDS011;2975;50.956;6.962;2023-12-28T06:23:17;2.70;;;1.60;;
5898;SDS011;2975;50.956;6.962;2023-12-28T06:25:43;1.57;;;1.40;;
5898;SDS011;2975;50.956;6.962;2023-12-28T06:28:08;1.73;;;1.40;;
5898;SDS011;2975;50.956;6.962;2023-12-28T06:30:34;4.87;;;2.40;;
5898;SDS011;2975;50.956;6.962;2023-12-28T06:33:00;3.70;;;1.90;;
5898;SDS011;2975;50.956;6.962;2023-12-28T06:35:25;3.67;;;1.30;;
5898;SDS011;2975;50.956;6.962;2023-12-28T06:37:51;2.20;;;1.30;;
5898;SDS011;2975;50.956;6.962;2023-12-28T06:40:16;2.57;;;1.40;;
5898;SDS011;2975;50.956;6.962;2023-12-28T06:42:42;1.50;;;1.30;;
5898;SDS011;2975;50.956;6.962;2023-12-28T06:45:08;3.03;;;1.50;;
5898;SDS011;2975;50.956;6.962;2023-12-28T06:47:35;4.73;;;2.60;;
5898;SDS011;2975;50.956;6.962;2023-12-28T06:50:00;1.33;;;1.10;;
5898;SDS011;2975;50.956;6.962;2023-12-28T06:52:26;1.60;;;1.23;;
5898;SDS011;2975;50.956;6.962;2023-12-28T06:54:52;12.77;;;2.00;;
5898;SDS011;2975;50.956;6.962;2023-12-28T06:57:18;3.63;;;1.40;;
5898;SDS011;2975;50.956;6.962;2023-12-28T06:59:44;4.80;;;2.00;;
5898;SDS011;2975;50.956;6.962;2023-12-28T07:02:10;1.37;;;1.23;;
5898;SDS011;2975;50.956;6.962;2023-12-28T07:04:35;1.53;;;1.43;;
5898;SDS011;2975;50.956;6.962;2023-12-28T07:07:01;2.03;;;1.27;;
5898;SDS011;2975;50.956;6.962;2023-12-28T07:09:27;2.17;;;1.47;;
5898;SDS011;2975;50.956;6.962;2023-12-28T07:11:52;2.77;;;1.40;;
5898;SDS011;2975;50.956;6.962;2023-12-28T07:14:18;2.57;;;1.50;;
5898;SDS011;2975;50.956;6.962;2023-12-28T07:16:43;2.20;;;1.37;;
5898;SDS011;2975;50.956;6.962;2023-12-28T07:19:10;6.63;;;1.60;;
5898;SDS011;2975;50.956;6.962;2023-12-28T07:21:35;2.67;;;1.40;;
5898;SDS011;2975;50.956;6.962;2023-12-28T07:24:01;1.97;;;1.27;;
5898;SDS011;2975;50.956;6.962;2023-12-28T07:26:27;1.77;;;1.47;;
5898;SDS011;2975;50.956;6.962;2023-12-28T07:28:52;2.17;;;1.40;;
5898;SDS011;2975;50.956;6.962;2023-12-28T07:31:26;2.70;;;1.53;;
5898;SDS011;2975;50.956;6.962;2023-12-28T07:33:52;2.73;;;1.27;;
5898;SDS011;2975;50.956;6.962;2023-12-28T07:36:19;2.40;;;1.20;;
5898;SDS011;2975;50.956;6.962;2023-12-28T07:38:45;1.83;;;1.40;;
5898;SDS011;2975;50.956;6.962;2023-12-28T07:41:10;1.57;;;1.20;;
5898;SDS011;2975;50.956;6.962;2023-12-28T07:43:36;2.47;;;1.47;;
5898;SDS011;2975;50.956;6.962;2023-12-28T07:46:02;3.63;;;1.80;;
5898;SDS011;2975;50.956;6.962;2023-12-28T07:48:27;2.57;;;1.10;;
5898;SDS011;2975;50.956;6.962;2023-12-28T07:50:55;2.10;;;1.20;;
5898;SDS011;2975;50.956;6.962;2023-12-28T07:53:24;5.40;;;1.33;;
5898;SDS011;2975;50.956;6.962;2023-12-28T07:55:50;2.23;;;1.50;;
5898;SDS011;2975;50.956;6.962;2023-12-28T07:58:15;2.80;;;1.40;;
5898;SDS011;2975;50.956;6.962;2023-12-28T08:00:41;2.37;;;1.40;;
5898;SDS011;2975;50.956;6.962;2023-12-28T08:03:07;8.43;;;1.73;;
5898;SDS011;2975;50.956;6.962;2023-12-28T08:05:32;1.63;;;1.30;;
5898;SDS011;2975;50.956;6.962;2023-12-28T08:07:58;2.50;;;1.20;;
5898;SDS011;2975;50.956;6.962;2023-12-28T08:10:23;3.00;;;1.40;;
5898;SDS011;2975;50.956;6.962;2023-12-28T08:12:49;3.00;;;1.57;;
5898;SDS011;2975;50.956;6.962;2023-12-28T08:15:15;3.80;;;1.50;;
5898;SDS011;2975;50.956;6.962;2023-12-28T08:17:40;5.27;;;1.70;;
5898;SDS011;2975;50.956;6.962;2023-12-28T08:20:06;2.83;;;1.47;;
5898;SDS011;2975;50.956;6.962;2023-12-28T08:22:32;4.27;;;1.63;;
5898;SDS011;2975;50.956;6.962;2023-12-28T08:24:58;4.00;;;1.73;;
5898;SDS011;2975;50.956;6.962;2023-12-28T08:27:24;6.13;;;1.60;;
5898;SDS011;2975;50.956;6.962;2023-12-28T08:29:49;5.87;;;1.50;;
5898;SDS011;2975;50.956;6.962;2023-12-28T08:32:15;3.80;;;1.37;;
5898;SDS011;2975;50.956;6.962;2023-12-28T08:34:42;3.37;;;1.17;;
5898;SDS011;2975;50.956;6.962;2023-12-28T08:37:08;2.23;;;1.30;;
5898;SDS011;2975;50.956;6.962;2023-12-28T08:39:33;5.70;;;2.20;;
5898;SDS011;2975;50.956;6.962;2023-12-28T08:41:59;4.80;;;2.20;;
5898;SDS011;2975;50.956;6.962;2023-12-28T08:44:25;2.30;;;1.37;;
5898;SDS011;2975;50.956;6.962;2023-12-28T08:46:50;3.03;;;1.20;;
5898;SDS011;2975;50.956;6.962;2023-12-28T08:49:16;5.20;;;1.67;;
5898;SDS011;2975;50.956;6.962;2023-12-28T08:51:42;2.37;;;1.60;;
5898;SDS011;2975;50.956;6.962;2023-12-28T08:54:07;3.93;;;1.67;;
5898;SDS011;2975;50.956;6.962;2023-12-28T08:56:34;2.57;;;1.73;;
5898;SDS011;2975;50.956;6.962;2023-12-28T08:58:59;5.83;;;1.70;;
5898;SDS011;2975;50.956;6.962;2023-12-28T09:01:25;4.67;;;1.47;;
5898;SDS011;2975;50.956;6.962;2023-12-28T09:03:51;7.03;;;1.60;;
5898;SDS011;2975;50.956;6.962;2023-12-28T09:06:18;3.20;;;1.30;;
5898;SDS011;2975;50.956;6.962;2023-12-28T09:08:45;3.80;;;1.80;;
5898;SDS011;2975;50.956;6.962;2023-12-28T09:11:12;4.20;;;1.40;;
5898;SDS011;2975;50.956;6.962;2023-12-28T09:13:39;2.30;;;1.40;;
5898;SDS011;2975;50.956;6.962;2023-12-28T09:16:05;3.20;;;1.27;;
5898;SDS011;2975;50.956;6.962;2023-12-28T09:18:32;3.30;;;1.43;;
5898;SDS011;2975;50.956;6.962;2023-12-28T09:20:58;4.83;;;1.73;;
5898;SDS011;2975;50.956;6.962;2023-12-28T09:23:23;5.30;;;2.10;;
5898;SDS011;2975;50.956;6.962;2023-12-28T09:25:49;6.53;;;1.90;;
5898;SDS011;2975;50.956;6.962;2023-12-28T09:28:15;3.73;;;1.50;;
5898;SDS011;2975;50.956;6.962;2023-12-28T09:30:40;3.63;;;1.40;;
5898;SDS011;2975;50.956;6.962;2023-12-28T09:33:06;3.23;;;1.37;;
5898;SDS011;2975;50.956;6.962;2023-12-28T09:35:31;3.97;;;1.77;;
5898;SDS011;2975;50.956;6.962;2023-12-28T09:37:57;4.37;;;1.47;;
5898;SDS011;2975;50.956;6.962;2023-12-28T09:40:23;5.73;;;1.67;;
5898;SDS011;2975;50.956;6.962;2023-12-28T09:45:40;4.67;;;1.60;;
5898;SDS011;2975;50.956;6.962;2023-12-28T09:48:05;5.33;;;1.67;;
5898;SDS011;2975;50.956;6.962;2023-12-28T09:50:32;2.83;;;1.57;;
5898;SDS011;2975;50.956;6.962;2023-12-28T09:52:57;4.30;;;1.87;;
5898;SDS011;2975;50.956;6.962;2023-12-28T09:55:23;3.57;;;1.53;;
5898;SDS011;2975;50.956;6.962;2023-12-28T09:57:52;5.37;;;1.47;;
5898;SDS011;2975;50.956;6.962;2023-12-28T10:00:19;3.90;;;1.60;;
5898;SDS011;2975;50.956;6.962;2023-12-28T10:02:45;6.57;;;1.83;;
5898;SDS011;2975;50.956;6.962;2023-12-28T10:05:14;4.90;;;1.60;;
5898;SDS011;2975;50.956;6.962;2023-12-28T10:07:41;2.83;;;1.80;;
5898;SDS011;2975;50.956;6.962;2023-12-28T10:10:08;3.13;;;1.60;;
5898;SDS011;2975;50.956;6.962;2023-12-28T10:12:34;2.97;;;1.27;;
5898;SDS011;2975;50.956;6.962;2023-12-28T10:15:00;4.40;;;1.33;;
5898;SDS011;2975;50.956;6.962;2023-12-28T10:17:26;3.50;;;1.37;;
5898;SDS011;2975;50.956;6.962;2023-12-28T10:19:52;2.50;;;1.50;;
5898;SDS011;2975;50.956;6.962;2023-12-28T10:22:18;2.90;;;1.40;;
5898;SDS011;2975;50.956;6.962;2023-12-28T10:24:45;5.20;;;1.53;;
5898;SDS011;2975;50.956;6.962;2023-12-28T10:27:10;6.47;;;1.70;;
5898;SDS011;2975;50.956;6.962;2023-12-28T10:29:40;4.97;;;1.73;;
5898;SDS011;2975;50.956;6.962;2023-12-28T10:32:07;3.70;;;1.40;;
5898;SDS011;2975;50.956;6.962;2023-12-28T10:34:32;5.47;;;1.73;;
5898;SDS011;2975;50.956;6.962;2023-12-28T10:36:59;5.67;;;1.77;;
5898;SDS011;2975;50.956;6.962;2023-12-28T10:39:25;5.97;;;1.80;;
5898;SDS011;2975;50.956;6.962;2023-12-28T10:41:53;3.20;;;1.50;;
5898;SDS011;2975;50.956;6.962;2023-12-28T10:44:22;4.43;;;1.87;;
5898;SDS011;2975;50.956;6.962;2023-12-28T10:46:50;4.80;;;1.33;;
5898;SDS011;2975;50.956;6.962;2023-12-28T10:49:21;8.00;;;1.90;;
5898;SDS011;2975;50.956;6.962;2023-12-28T10:51:51;5.70;;;1.40;;
5898;SDS011;2975;50.956;6.962;2023-12-28T10:54:37;4.60;;;1.60;;
5898;SDS011;2975;50.956;6.962;2023-12-28T10:57:14;3.67;;;1.40;;
5898;SDS011;2975;50.956;6.962;2023-12-28T11:02:45;7.17;;;1.83;;
5898;SDS011;2975;50.956;6.962;2023-12-28T11:05:13;6.63;;;1.50;;
5898;SDS011;2975;50.956;6.962;2023-12-28T11:07:42;5.30;;;1.60;;
5898;SDS011;2975;50.956;6.962;2023-12-28T11:10:09;3.17;;;1.60;;
5898;SDS011;2975;50.956;6.962;2023-12-28T11:12:35;7.33;;;1.80;;
5898;SDS011;2975;50.956;6.962;2023-12-28T11:15:03;8.60;;;3.10;;
5898;SDS011;2975;50.956;6.962;2023-12-28T11:17:32;4.67;;;1.20;;
5898;SDS011;2975;50.956;6.962;2023-12-28T11:20:01;5.97;;;1.30;;
5898;SDS011;2975;50.956;6.962;2023-12-28T11:22:29;4.63;;;1.27;;
5898;SDS011;2975;50.956;6.962;2023-12-28T11:24:56;7.67;;;1.93;;
5898;SDS011;2975;50.956;6.962;2023-12-28T11:27:22;5.27;;;1.60;;
5898;SDS011;2975;50.956;6.962;2023-12-28T11:29:48;5.13;;;1.70;;
5898;SDS011;2975;50.956;6.962;2023-12-28T11:32:14;6.27;;;2.00;;
5898;SDS011;2975;50.956;6.962;2023-12-28T11:34:39;4.33;;;1.53;;
5898;SDS011;2975;50.956;6.962;2023-12-28T11:37:16;7.97;;;2.10;;
5898;SDS011;2975;50.956;6.962;2023-12-28T11:39:45;4.00;;;1.53;;
5898;SDS011;2975;50.956;6.962;2023-12-28T11:42:18;4.87;;;2.47;;
5898;SDS011;2975;50.956;6.962;2023-12-28T11:44:45;4.77;;;1.57;;
5898;SDS011;2975;50.956;6.962;2023-12-28T11:47:15;4.50;;;1.90;;
5898;SDS011;2975;50.956;6.962;2023-12-28T11:49:48;7.23;;;1.90;;
5898;SDS011;2975;50.956;6.962;2023-12-28T11:52:26;4.27;;;1.50;;
5898;SDS011;2975;50.956;6.962;2023-12-28T11:54:53;9.60;;;2.07;;
5898;SDS011;2975;50.956;6.962;2023-12-28T11:57:19;4.50;;;1.50;;
5898;SDS011;2975;50.956;6.962;2023-12-28T11:59:44;5.10;;;1.40;;
5898;SDS011;2975;50.956;6.962;2023-12-28T12:02:10;7.47;;;2.23;;
5898;SDS011;2975;50.956;6.962;2023-12-28T12:04:36;4.57;;;1.90;;
5898;SDS011;2975;50.956;6.962;2023-12-28T12:07:02;4.13;;;2.23;;
5898;SDS011;2975;50.956;6.962;2023-12-28T12:09:31;3.63;;;2.30;;
5898;SDS011;2975;50.956;6.962;2023-12-28T12:12:02;9.43;;;2.50;;
5898;SDS011;2975;50.956;6.962;2023-12-28T12:14:29;6.77;;;2.50;;
5898;SDS011;2975;50.956;6.962;2023-12-28T12:16:56;7.50;;;2.07;;
5898;SDS011;2975;50.956;6.962;2023-12-28T12:19:25;5.17;;;1.87;;
5898;SDS011;2975;50.956;6.962;2023-12-28T12:21:54;5.40;;;1.80;;
5898;SDS011;2975;50.956;6.962;2023-12-28T12:24:21;6.47;;;2.30;;
5898;SDS011;2975;50.956;6.962;2023-12-28T12:26:49;6.30;;;1.67;;
5898;SDS011;2975;50.956;6.962;2023-12-28T12:29:17;4.13;;;1.23;;
5898;SDS011;2975;50.956;6.962;2023-12-28T12:31:43;4.67;;;1.30;;
5898;SDS011;2975;50.956;6.962;2023-12-28T12:34:11;4.67;;;1.40;;
5898;SDS011;2975;50.956;6.962;2023-12-28T12:36:40;5.50;;;1.53;;
5898;SDS011;2975;50.956;6.962;2023-12-28T12:39:06;5.10;;;1.53;;
5898;SDS011;2975;50.956;6.962;2023-12-28T12:41:35;7.13;;;1.90;;
5898;SDS011;2975;50.956;6.962;2023-12-28T12:44:00;3.83;;;1.57;;
5898;SDS011;2975;50.956;6.962;2023-12-28T12:46:26;7.33;;;1.70;;
5898;SDS011;2975;50.956;6.962;2023-12-28T12:48:58;5.40;;;1.63;;
5898;SDS011;2975;50.956;6.962;2023-12-28T12:51:26;4.30;;;1.73;;
5898;SDS011;2975;50.956;6.962;2023-12-28T12:53:58;3.53;;;1.53;;
5898;SDS011;2975;50.956;6.962;2023-12-28T12:56:27;6.30;;;1.97;;
5898;SDS011;2975;50.956;6.962;2023-12-28T12:58:53;9.80;;;2.70;;
5898;SDS011;2975;50.956;6.962;2023-12-28T13:01:19;7.67;;;1.90;;
5898;SDS011;2975;50.956;6.962;2023-12-28T13:03:45;2.90;;;1.40;;
5898;SDS011;2975;50.956;6.962;2023-12-28T13:06:11;4.87;;;1.60;;
5898;SDS011;2975;50.956;6.962;2023-12-28T13:08:37;5.87;;;2.13;;
5898;SDS011;2975;50.956;6.962;2023-12-28T13:11:03;5.10;;;2.03;;
5898;SDS011;2975;50.956;6.962;2023-12-28T13:13:31;5.67;;;1.97;;
5898;SDS011;2975;50.956;6.962;2023-12-28T13:15:57;6.53;;;1.80;;
5898;SDS011;2975;50.956;6.962;2023-12-28T13:18:23;5.10;;;1.87;;
5898;SDS011;2975;50.956;6.962;2023-12-28T13:20:49;4.00;;;1.30;;
5898;SDS011;2975;50.956;6.962;2023-12-28T13:23:14;6.10;;;1.90;;
5898;SDS011;2975;50.956;6.962;2023-12-28T13:25:40;6.97;;;1.50;;
5898;SDS011;2975;50.956;6.962;2023-12-28T13:28:06;7.43;;;1.73;;
5898;SDS011;2975;50.956;6.962;2023-12-28T13:30:31;5.30;;;1.70;;
5898;SDS011;2975;50.956;6.962;2023-12-28T13:32:57;8.87;;;2.50;;
5898;SDS011;2975;50.956;6.962;2023-12-28T13:35:23;6.33;;;1.80;;
5898;SDS011;2975;50.956;6.962;2023-12-28T13:37:49;7.20;;;2.20;;
5898;SDS011;2975;50.956;6.962;2023-12-28T13:40:15;4.17;;;1.70;;
5898;SDS011;2975;50.956;6.962;2023-12-28T13:42:41;5.33;;;1.93;;
5898;SDS011;2975;50.956;6.962;2023-12-28T13:45:07;4.43;;;1.37;;
5898;SDS011;2975;50.956;6.962;2023-12-28T13:47:33;5.20;;;1.70;;
5898;SDS011;2975;50.956;6.962;2023-12-28T13:49:58;4.20;;;1.40;;
5898;SDS011;2975;50.956;6.962;2023-12-28T13:52:24;6.73;;;1.80;;
5898;SDS011;2975;50.956;6.962;2023-12-28T13:54:49;6.10;;;1.77;;
5898;SDS011;2975;50.956;6.962;2023-12-28T13:57:15;9.37;;;1.87;;
5898;SDS011;2975;50.956;6.962;2023-12-28T13:59:41;4.57;;;1.90;;
5898;SDS011;2975;50.956;6.962;2023-12-28T14:02:06;5.10;;;2.47;;
5898;SDS011;2975;50.956;6.962;2023-12-28T14:04:32;6.07;;;1.97;;
5898;SDS011;2975;50.956;6.962;2023-12-28T14:06:57;4.57;;;1.70;;
5898;SDS011;2975;50.956;6.962;2023-12-28T14:09:23;7.50;;;1.53;;
5898;SDS011;2975;50.956;6.962;2023-12-28T14:11:48;4.60;;;1.73;;
5898;SDS011;2975;50.956;6.962;2023-12-28T14:14:14;5.87;;;2.00;;
5898;SDS011;2975;50.956;6.962;2023-12-28T14:16:40;6.20;;;1.87;;
5898;SDS011;2975;50.956;6.962;2023-12-28T14:19:05;4.53;;;1.70;;
5898;SDS011;2975;50.956;6.962;2023-12-28T14:21:38;4.93;;;1.70;;
5898;SDS011;2975;50.956;6.962;2023-12-28T14:24:04;5.63;;;1.73;;
5898;SDS011;2975;50.956;6.962;2023-12-28T14:26:32;6.37;;;1.80;;
5898;SDS011;2975;50.956;6.962;2023-12-28T14:28:58;5.47;;;1.80;;
5898;SDS011;2975;50.956;6.962;2023-12-28T14:31:27;12.27;;;2.37;;
5898;SDS011;2975;50.956;6.962;2023-12-28T14:33:53;6.67;;;2.00;;
5898;SDS011;2975;50.956;6.962;2023-12-28T14:36:27;7.80;;;1.70;;
5898;SDS011;2975;50.956;6.962;2023-12-28T14:39:02;6.20;;;2.00;;
5898;SDS011;2975;50.956;6.962;2023-12-28T14:41:37;9.60;;;1.73;;
5898;SDS011;2975;50.956;6.962;2023-12-28T14:44:03;7.93;;;1.83;;
5898;SDS011;2975;50.956;6.962;2023-12-28T14:46:29;6.97;;;2.87;;
5898;SDS011;2975;50.956;6.962;2023-12-28T14:48:55;10.80;;;2.80;;
5898;SDS011;2975;50.956;6.962;2023-12-28T14:51:21;6.97;;;1.77;;
5898;SDS011;2975;50.956;6.962;2023-12-28T14:53:47;5.37;;;1.70;;
5898;SDS011;2975;50.956;6.962;2023-12-28T14:56:13;4.20;;;1.67;;
5898;SDS011;2975;50.956;6.962;2023-12-28T14:58:39;7.33;;;1.93;;
5898;SDS011;2975;50.956;6.962;2023-12-28T15:01:09;5.87;;;1.67;;
5898;SDS011;2975;50.956;6.962;2023-12-28T15:03:35;9.00;;;2.80;;
5898;SDS011;2975;50.956;6.962;2023-12-28T15:06:03;8.10;;;2.13;;
5898;SDS011;2975;50.956;6.962;2023-12-28T15:08:29;5.73;;;1.90;;
5898;SDS011;2975;50.956;6.962;2023-12-28T15:10:55;7.93;;;2.03;;
5898;SDS011;2975;50.956;6.962;2023-12-28T15:13:21;6.07;;;1.43;;
5898;SDS011;2975;50.956;6.962;2023-12-28T15:15:47;5.17;;;1.67;;